sensor_id;sensor_type;location;lat;lon;timestamp;pressure;altitude;pressure_sealevel;temperature;humidity
23318;BME280;11831;55.918;37.746;2023-01-26T00:01:14;99926.44;;;-1.54;0.00
23318;BME280;11831;55.918;37.746;2023-01-26T00:03:41;99918.19;;;-1.60;0.00
23318;BME280;11831;55.918;37.746;2023-01-26T00:06:11;99936.94;;;-1.54;0.00
23318;BME280;11831;55.918;37.746;2023-01-26T00:08:39;99955.31;;;-1.83;0.00
23318;BME280;11831;55.918;37.746;2023-01-26T00:11:07;99938.59;;;-1.92;0.00
23318;BME280;11831;55.918;37.746;2023-01-26T00:13:35;99945.22;;;-1.88;0.00
23318;BME280;11831;55.918;37.746;2023-01-26T00:16:02;99933.06;;;-1.89;0.00
23318;BME280;11831;55.918;37.746;2023-01-26T00:18:29;99930.34;;;-1.78;0.00
23318;BME280;11831;55.918;37.746;2023-01-26T00:21:00;99931.72;;;-1.74;0.00
23318;BME280;11831;55.918;37.746;2023-01-26T00:23:29;99947.03;;;-1.60;0.00
23318;BME280;11831;55.918;37.746;2023-01-26T00:25:56;99931.03;;;-1.76;0.00
23318;BME280;11831;55.918;37.746;2023-01-26T00:28:22;99927.00;;;-1.41;0.00
23318;BME280;11831;55.918;37.746;2023-01-26T00:30:49;99937.22;;;-1.67;0.00
23318;BME280;11831;55.918;37.746;2023-01-26T00:33:15;99920.94;;;-1.71;0.00
23318;BME280;11831;55.918;37.746;2023-01-26T00:35:42;99926.72;;;-1.58;0.00
23318;BME280;11831;55.918;37.746;2023-01-26T00:38:12;99935.97;;;-1.63;0.00
23318;BME280;11831;55.918;37.746;2023-01-26T00:40:38;99926.75;;;-1.67;0.00
23318;BME280;11831;55.918;37.746;2023-01-26T00:43:05;99950.72;;;-1.91;0.00
23318;BME280;11831;55.918;37.746;2023-01-26T00:45:33;99921.78;;;-1.70;0.00
23318;BME280;11831;55.918;37.746;2023-01-26T00:48:00;99920.53;;;-1.76;0.00
23318;BME280;11831;55.918;37.746;2023-01-26T00:50:27;99913.78;;;-1.78;0.00
23318;BME280;11831;55.918;37.746;2023-01-26T00:52:53;99920.94;;;-1.71;0.00
23318;BME280;11831;55.918;37.746;2023-01-26T00:55:20;99925.63;;;-1.74;0.00
23318;BME280;11831;55.918;37.746;2023-01-26T00:57:48;99937.91;;;-1.84;0.00
23318;BME280;11831;55.918;37.746;2023-01-26T01:00:16;99944.09;;;-1.95;0.00
23318;BME280;11831;55.918;37.746;2023-01-26T01:02:43;99931.13;;;-1.97;0.00
23318;BME280;11831;55.918;37.746;2023-01-26T01:05:10;99916.53;;;-1.70;0.00
23318;BME280;11831;55.918;37.746;2023-01-26T01:07:37;99908.50;;;-1.88;0.00
23318;BME280;11831;55.918;37.746;2023-01-26T01:10:03;99916.22;;;-1.87;0.00
23318;BME280;11831;55.918;37.746;2023-01-26T01:12:30;99903.53;;;-2.01;0.00
23318;BME280;11831;55.918;37.746;2023-01-26T01:14:56;99922.31;;;-1.86;0.00
23318;BME280;11831;55.918;37.746;2023-01-26T01:17:23;99940.78;;;-1.88;0.00
23318;BME280;11831;55.918;37.746;2023-01-26T01:19:49;99920.66;;;-1.87;0.00
23318;BME280;11831;55.918;37.746;2023-01-26T01:22:15;99936.12;;;-1.74;0.00
23318;BME280;11831;55.918;37.746;2023-01-26T01:24:42;99915.81;;;-1.92;0.00
23318;BME280;11831;55.918;37.746;2023-01-26T01:27:08;99913.62;;;-1.87;0.00
23318;BME280;11831;55.918;37.746;2023-01-26T01:29:34;99908.53;;;-1.78;0.00
23318;BME280;11831;55.918;37.746;2023-01-26T01:32:01;99902.31;;;-1.68;0.00
23318;BME280;11831;55.918;37.746;2023-01-26T01:34:27;99894.69;;;-1.32;0.00
23318;BME280;11831;55.918;37.746;2023-01-26T01:36:54;99915.41;;;-1.97;0.00
23318;BME280;11831;55.918;37.746;2023-01-26T01:39:20;99924.41;;;-1.70;0.00
23318;BME280;11831;55.918;37.746;2023-01-26T01:41:46;99914.06;;;-1.81;0.00
23318;BME280;11831;55.918;37.746;2023-01-26T01:44:15;99931.53;;;-1.92;0.00
23318;BME280;11831;55.918;37.746;2023-01-26T01:46:50;99901.87;;;-1.92;0.00
23318;BME280;11831;55.918;37.746;2023-01-26T01:49:22;99913.34;;;-1.93;0.00
23318;BME280;11831;55.918;37.746;2023-01-26T01:51:55;99927.41;;;-2.04;0.00
23318;BME280;11831;55.918;37.746;2023-01-26T01:54:42;99913.06;;;-1.90;0.00
23318;BME280;11831;55.918;37.746;2023-01-26T01:57:13;99913.50;;;-1.75;0.00
23318;BME280;11831;55.918;37.746;2023-01-26T01:59:50;99903.13;;;-1.87;0.00
23318;BME280;11831;55.918;37.746;2023-01-26T02:02:19;99893.63;;;-1.78;0.00
23318;BME280;11831;55.918;37.746;2023-01-26T02:04:46;99911.53;;;-1.93;0.00
23318;BME280;11831;55.918;37.746;2023-01-26T02:07:13;99896.22;;;-1.88;0.00
23318;BME280;11831;55.918;37.746;2023-01-26T02:09:40;99870.31;;;-1.81;0.00
23318;BME280;11831;55.918;37.746;2023-01-26T02:12:29;99871.97;;;-1.80;0.00
23318;BME280;11831;55.918;37.746;2023-01-26T02:14:56;99876.22;;;-1.69;0.00
23318;BME280;11831;55.918;37.746;2023-01-26T02:17:23;99880.34;;;-1.86;0.00
23318;BME280;11831;55.918;37.746;2023-01-26T02:23:14;99871.41;;;-1.74;0.00
23318;BME280;11831;55.918;37.746;2023-01-26T02:28:25;99865.59;;;-1.68;0.00
23318;BME280;11831;55.918;37.746;2023-01-26T02:30:53;99881.91;;;-1.74;0.00
23318;BME280;11831;55.918;37.746;2023-01-26T02:33:22;99875.81;;;-1.45;0.00
23318;BME280;11831;55.918;37.746;2023-01-26T02:35:49;99869.03;;;-1.87;0.00
23318;BME280;11831;55.918;37.746;2023-01-26T02:38:17;99883.66;;;-1.84;0.00
23318;BME280;11831;55.918;37.746;2023-01-26T02:41:04;99856.22;;;-1.70;0.00
23318;BME280;11831;55.918;37.746;2023-01-26T02:43:32;99844.22;;;-1.73;0.00
23318;BME280;11831;55.918;37.746;2023-01-26T02:45:58;99839.19;;;-1.37;0.00
23318;BME280;11831;55.918;37.746;2023-01-26T02:48:25;99843.94;;;-1.50;0.00
23318;BME280;11831;55.918;37.746;2023-01-26T02:51:09;99863.28;;;-1.80;0.00
23318;BME280;11831;55.918;37.746;2023-01-26T02:53:36;99850.22;;;-1.34;0.00
23318;BME280;11831;55.918;37.746;2023-01-26T02:56:03;99859.69;;;-1.70;0.00
23318;BME280;11831;55.918;37.746;2023-01-26T02:58:29;99859.28;;;-1.75;0.00
23318;BME280;11831;55.918;37.746;2023-01-26T03:00:55;99837.31;;;-1.64;0.00
23318;BME280;11831;55.918;37.746;2023-01-26T03:03:26;99837.09;;;-1.34;0.00
23318;BME280;11831;55.918;37.746;2023-01-26T03:06:11;99827.25;;;-1.69;0.00
23318;BME280;11831;55.918;37.746;2023-01-26T03:08:38;99839.25;;;-1.85;0.00
23318;BME280;11831;55.918;37.746;2023-01-26T03:11:06;99836.75;;;-1.68;0.00
23318;BME280;11831;55.918;37.746;2023-01-26T03:13:33;99830.75;;;-1.31;0.00
23318;BME280;11831;55.918;37.746;2023-01-26T03:15:59;99843.81;;;-1.68;0.00
23318;BME280;11831;55.918;37.746;2023-01-26T03:18:33;99836.34;;;-1.73;0.00
23318;BME280;11831;55.918;37.746;2023-01-26T03:21:21;99826.56;;;-1.71;0.00
23318;BME280;11831;55.918;37.746;2023-01-26T03:24:10;99840.28;;;-1.30;0.00
23318;BME280;11831;55.918;37.746;2023-01-26T03:26:55;99825.56;;;-1.60;0.00
23318;BME280;11831;55.918;37.746;2023-01-26T03:29:40;99835.66;;;-1.65;0.00
23318;BME280;11831;55.918;37.746;2023-01-26T03:32:07;99828.19;;;-1.50;0.00
23318;BME280;11831;55.918;37.746;2023-01-26T03:34:33;99833.00;;;-1.56;0.00
23318;BME280;11831;55.918;37.746;2023-01-26T03:37:00;99858.31;;;-1.74;0.00
23318;BME280;11831;55.918;37.746;2023-01-26T03:39:26;99833.75;;;-1.73;0.00
23318;BME280;11831;55.918;37.746;2023-01-26T03:42:11;99844.19;;;-1.63;0.00
23318;BME280;11831;55.918;37.746;2023-01-26T03:44:56;99825.31;;;-1.67;0.00
23318;BME280;11831;55.918;37.746;2023-01-26T03:47:41;99841.47;;;-1.91;0.00
23318;BME280;11831;55.918;37.746;2023-01-26T03:50:26;99842.28;;;-1.90;0.00
23318;BME280;11831;55.918;37.746;2023-01-26T03:53:18;99835.94;;;-1.88;0.00
23318;BME280;11831;55.918;37.746;2023-01-26T03:56:04;99842.84;;;-1.77;0.00
23318;BME280;11831;55.918;37.746;2023-01-26T03:58:49;99850.00;;;-1.60;0.00
23318;BME280;11831;55.918;37.746;2023-01-26T04:01:18;99825.81;;;-1.44;0.00
23318;BME280;11831;55.918;37.746;2023-01-26T04:03:47;99852.75;;;-1.61;0.00
23318;BME280;11831;55.918;37.746;2023-01-26T04:06:33;99835.38;;;-1.72;0.00
23318;BME280;11831;55.918;37.746;2023-01-26T04:09:19;99854.03;;;-1.94;0.00
23318;BME280;11831;55.918;37.746;2023-01-26T04:11:46;99850.31;;;-1.82;0.00
23318;BME280;11831;55.918;37.746;2023-01-26T04:14:14;99831.50;;;-1.58;0.00
23318;BME280;11831;55.918;37.746;2023-01-26T04:17:00;99840.63;;;-1.72;0.00
23318;BME280;11831;55.918;37.746;2023-01-26T04:19:45;99835.78;;;-1.57;0.00
23318;BME280;11831;55.918;37.746;2023-01-26T04:22:30;99833.44;;;-1.60;0.00
23318;BME280;11831;55.918;37.746;2023-01-26T04:24:59;99859.53;;;-1.49;0.00
23318;BME280;11831;55.918;37.746;2023-01-26T04:27:26;99845.28;;;-1.56;0.00
23318;BME280;11831;55.918;37.746;2023-01-26T04:29:52;99838.00;;;-1.62;0.00
23318;BME280;11831;55.918;37.746;2023-01-26T04:32:19;99835.38;;;-1.62;0.00
23318;BME280;11831;55.918;37.746;2023-01-26T04:34:46;99824.75;;;-1.51;0.00
23318;BME280;11831;55.918;37.746;2023-01-26T04:37:13;99829.09;;;-1.32;0.00
23318;BME280;11831;55.918;37.746;2023-01-26T04:39:39;99842.97;;;-1.49;0.00
23318;BME280;11831;55.918;37.746;2023-01-26T04:42:06;99828.13;;;-1.21;0.00
23318;BME280;11831;55.918;37.746;2023-01-26T04:44:32;99841.47;;;-1.71;0.00
23318;BME280;11831;55.918;37.746;2023-01-26T04:46:59;99829.78;;;-1.30;0.00
23318;BME280;11831;55.918;37.746;2023-01-26T04:49:25;99844.31;;;-1.55;0.00
23318;BME280;11831;55.918;37.746;2023-01-26T04:51:51;99834.09;;;-1.39;0.00
23318;BME280;11831;55.918;37.746;2023-01-26T04:54:18;99825.25;;;-1.38;0.00
23318;BME280;11831;55.918;37.746;2023-01-26T04:56:44;99822.78;;;-1.39;0.00
23318;BME280;11831;55.918;37.746;2023-01-26T04:59:11;99812.25;;;-1.30;0.00
23318;BME280;11831;55.918;37.746;2023-01-26T05:01:39;99822.62;;;-1.38;0.00
23318;BME280;11831;55.918;37.746;2023-01-26T05:04:05;99816.66;;;-1.30;0.00
23318;BME280;11831;55.918;37.746;2023-01-26T05:06:32;99823.41;;;-1.18;0.00
23318;BME280;11831;55.918;37.746;2023-01-26T05:08:59;99827.75;;;-1.56;0.00
23318;BME280;11831;55.918;37.746;2023-01-26T05:11:25;99820.84;;;-1.57;0.00
23318;BME280;11831;55.918;37.746;2023-01-26T05:13:52;99817.41;;;-1.47;0.00
23318;BME280;11831;55.918;37.746;2023-01-26T05:16:20;99826.22;;;-1.39;0.00
23318;BME280;11831;55.918;37.746;2023-01-26T05:18:47;99815.09;;;-1.23;0.00
23318;BME280;11831;55.918;37.746;2023-01-26T05:21:13;99829.56;;;-1.46;0.00
23318;BME280;11831;55.918;37.746;2023-01-26T05:23:40;99825.94;;;-1.36;0.00
23318;BME280;11831;55.918;37.746;2023-01-26T05:26:06;99821.50;;;-1.35;0.00
23318;BME280;11831;55.918;37.746;2023-01-26T05:28:34;99830.88;;;-1.33;0.00
23318;BME280;11831;55.918;37.746;2023-01-26T05:31:00;99823.84;;;-0.95;0.00
23318;BME280;11831;55.918;37.746;2023-01-26T05:33:27;99830.47;;;-1.28;0.00
23318;BME280;11831;55.918;37.746;2023-01-26T05:35:53;99835.16;;;-1.32;0.00
23318;BME280;11831;55.918;37.746;2023-01-26T05:38:20;99824.34;;;-0.82;0.00
23318;BME280;11831;55.918;37.746;2023-01-26T05:40:46;99839.16;;;-1.28;0.00
23318;BME280;11831;55.918;37.746;2023-01-26T05:43:13;99821.19;;;-1.13;0.00
23318;BME280;11831;55.918;37.746;2023-01-26T05:45:40;99832.22;;;-1.09;0.00
23318;BME280;11831;55.918;37.746;2023-01-26T05:48:06;99831.59;;;-0.66;0.00
23318;BME280;11831;55.918;37.746;2023-01-26T05:50:32;99824.34;;;-0.82;0.00
23318;BME280;11831;55.918;37.746;2023-01-26T05:53:06;99824.28;;;-1.00;0.00
23318;BME280;11831;55.918;37.746;2023-01-26T05:55:34;99824.81;;;-0.86;0.00
23318;BME280;11831;55.918;37.746;2023-01-26T05:58:00;99845.12;;;-0.98;0.00
23318;BME280;11831;55.918;37.746;2023-01-26T06:00:26;99820.25;;;-0.94;0.00
23318;BME280;11831;55.918;37.746;2023-01-26T06:02:53;99822.59;;;-0.64;0.00
23318;BME280;11831;55.918;37.746;2023-01-26T06:05:20;99828.94;;;-0.84;0.00
23318;BME280;11831;55.918;37.746;2023-01-26T06:07:46;99818.44;;;-0.94;0.00
23318;BME280;11831;55.918;37.746;2023-01-26T06:10:12;99815.41;;;-0.89;0.00
23318;BME280;11831;55.918;37.746;2023-01-26T06:12:39;99808.25;;;-0.97;0.00
23318;BME280;11831;55.918;37.746;2023-01-26T06:15:09;99802.00;;;-0.86;0.00
23318;BME280;11831;55.918;37.746;2023-01-26T06:17:37;99801.03;;;-0.85;0.00
23318;BME280;11831;55.918;37.746;2023-01-26T06:20:05;99827.88;;;-0.91;0.00
23318;BME280;11831;55.918;37.746;2023-01-26T06:22:32;99808.38;;;-0.88;0.00
23318;BME280;11831;55.918;37.746;2023-01-26T06:24:58;99814.19;;;-0.95;0.00
23318;BME280;11831;55.918;37.746;2023-01-26T06:27:24;99814.56;;;-1.17;0.00
23318;BME280;11831;55.918;37.746;2023-01-26T06:29:50;99812.22;;;-0.93;0.00
23318;BME280;11831;55.918;37.746;2023-01-26T06:32:17;99804.06;;;-1.17;0.00
23318;BME280;11831;55.918;37.746;2023-01-26T06:34:44;99811.22;;;-1.09;0.00
23318;BME280;11831;55.918;37.746;2023-01-26T06:37:10;99805.44;;;-1.22;0.00
23318;BME280;11831;55.918;37.746;2023-01-26T06:39:38;99810.37;;;-1.10;0.00
23318;BME280;11831;55.918;37.746;2023-01-26T06:42:07;99809.75;;;-1.31;0.00
23318;BME280;11831;55.918;37.746;2023-01-26T06:44:33;99810.44;;;-1.29;0.00
23318;BME280;11831;55.918;37.746;2023-01-26T06:47:00;99799.75;;;-1.08;0.00
23318;BME280;11831;55.918;37.746;2023-01-26T06:49:26;99795.37;;;-1.17;0.00
23318;BME280;11831;55.918;37.746;2023-01-26T06:54:22;99801.88;;;-0.94;0.00
23318;BME280;11831;55.918;37.746;2023-01-26T06:56:50;99794.94;;;-1.22;0.00
23318;BME280;11831;55.918;37.746;2023-01-26T06:59:16;99797.84;;;-1.16;0.00
23318;BME280;11831;55.918;37.746;2023-01-26T07:01:45;99802.28;;;-1.26;0.00
23318;BME280;11831;55.918;37.746;2023-01-26T07:04:14;99809.59;;;-1.20;0.00
23318;BME280;11831;55.918;37.746;2023-01-26T07:06:41;99811.75;;;-1.43;0.00
23318;BME280;11831;55.918;37.746;2023-01-26T07:09:09;99805.78;;;-1.35;0.00
23318;BME280;11831;55.918;37.746;2023-01-26T07:11:35;99807.12;;;-1.21;0.00
23318;BME280;11831;55.918;37.746;2023-01-26T07:14:02;99795.47;;;-1.09;0.00
23318;BME280;11831;55.918;37.746;2023-01-26T07:16:28;99794.69;;;-1.29;0.00
23318;BME280;11831;55.918;37.746;2023-01-26T07:18:55;99782.78;;;-1.14;0.00
23318;BME280;11831;55.918;37.746;2023-01-26T07:21:22;99789.09;;;-1.07;0.00
23318;BME280;11831;55.918;37.746;2023-01-26T07:23:49;99798.34;;;-1.03;0.00
23318;BME280;11831;55.918;37.746;2023-01-26T07:26:19;99800.97;;;-0.75;0.00
23318;BME280;11831;55.918;37.746;2023-01-26T07:28:45;99814.22;;;-1.04;0.00
23318;BME280;11831;55.918;37.746;2023-01-26T07:31:12;99802.75;;;-0.76;0.00
23318;BME280;11831;55.918;37.746;2023-01-26T07:33:39;99805.00;;;-1.08;0.00
23318;BME280;11831;55.918;37.746;2023-01-26T07:36:06;99796.53;;;-1.02;0.00
23318;BME280;11831;55.918;37.746;2023-01-26T07:38:33;99794.97;;;-0.95;0.00
23318;BME280;11831;55.918;37.746;2023-01-26T07:41:04;99794.03;;;-0.49;0.00
23318;BME280;11831;55.918;37.746;2023-01-26T07:43:33;99796.00;;;-0.15;0.00
23318;BME280;11831;55.918;37.746;2023-01-26T07:45:59;99790.88;;;-0.35;0.00
23318;BME280;11831;55.918;37.746;2023-01-26T07:48:26;99786.72;;;-0.27;0.00
23318;BME280;11831;55.918;37.746;2023-01-26T07:50:57;99808.53;;;-1.00;0.00
23318;BME280;11831;55.918;37.746;2023-01-26T07:53:24;99805.91;;;-1.00;0.00
23318;BME280;11831;55.918;37.746;2023-01-26T07:55:52;99786.91;;;-0.84;0.00
23318;BME280;11831;55.918;37.746;2023-01-26T07:58:19;99787.91;;;-0.67;0.00
23318;BME280;11831;55.918;37.746;2023-01-26T08:00:46;99785.59;;;-0.70;0.00
23318;BME280;11831;55.918;37.746;2023-01-26T08:03:12;99786.66;;;-0.63;0.00
23318;BME280;11831;55.918;37.746;2023-01-26T08:05:39;99780.16;;;-0.41;0.00
23318;BME280;11831;55.918;37.746;2023-01-26T08:08:05;99777.22;;;-0.03;0.00
23318;BME280;11831;55.918;37.746;2023-01-26T08:10:32;99795.37;;;-0.45;0.00
23318;BME280;11831;55.918;37.746;2023-01-26T08:12:58;99782.94;;;-0.25;0.00
23318;BME280;11831;55.918;37.746;2023-01-26T08:15:28;99791.12;;;-0.73;0.00
23318;BME280;11831;55.918;37.746;2023-01-26T08:17:55;99783.03;;;-0.62;0.00
23318;BME280;11831;55.918;37.746;2023-01-26T08:20:21;99777.91;;;-0.36;0.00
23318;BME280;11831;55.918;37.746;2023-01-26T08:22:48;99773.09;;;-0.23;0.00
23318;BME280;11831;55.918;37.746;2023-01-26T08:25:14;99783.16;;;-0.54;0.00
23318;BME280;11831;55.918;37.746;2023-01-26T08:27:41;99772.94;;;-0.57;0.00
23318;BME280;11831;55.918;37.746;2023-01-26T08:30:07;99779.66;;;-0.27;0.00
23318;BME280;11831;55.918;37.746;2023-01-26T08:32:34;99780.78;;;-0.29;0.00
23318;BME280;11831;55.918;37.746;2023-01-26T08:35:00;99785.00;;;-0.64;0.00
23318;BME280;11831;55.918;37.746;2023-01-26T08:37:26;99770.69;;;-0.52;0.00
23318;BME280;11831;55.918;37.746;2023-01-26T08:39:53;99772.87;;;-0.47;0.00
23318;BME280;11831;55.918;37.746;2023-01-26T08:42:19;99780.69;;;-0.55;0.00
23318;BME280;11831;55.918;37.746;2023-01-26T08:44:45;99769.47;;;0.14;0.00
23318;BME280;11831;55.918;37.746;2023-01-26T08:47:11;99754.69;;;-0.05;0.00
23318;BME280;11831;55.918;37.746;2023-01-26T08:49:38;99763.84;;;-0.45;0.00
23318;BME280;11831;55.918;37.746;2023-01-26T08:52:04;99757.81;;;-0.02;0.00
23318;BME280;11831;55.918;37.746;2023-01-26T08:54:30;99773.31;;;-0.34;0.00
23318;BME280;11831;55.918;37.746;2023-01-26T08:56:57;99770.25;;;-0.29;0.00
23318;BME280;11831;55.918;37.746;2023-01-26T08:59:23;99747.81;;;-0.24;0.00
23318;BME280;11831;55.918;37.746;2023-01-26T09:01:49;99756.56;;;0.03;0.00
23318;BME280;11831;55.918;37.746;2023-01-26T09:04:16;99774.56;;;-0.03;0.00
23318;BME280;11831;55.918;37.746;2023-01-26T09:06:42;99765.37;;;0.19;0.00
23318;BME280;11831;55.918;37.746;2023-01-26T09:09:08;99759.97;;;0.21;0.00
23318;BME280;11831;55.918;37.746;2023-01-26T09:11:39;99761.97;;;0.01;0.00
23318;BME280;11831;55.918;37.746;2023-01-26T09:14:05;99760.34;;;-0.18;0.00
23318;BME280;11831;55.918;37.746;2023-01-26T09:16:32;99752.88;;;-0.05;0.00
23318;BME280;11831;55.918;37.746;2023-01-26T09:18:58;99756.00;;;0.17;0.00
23318;BME280;11831;55.918;37.746;2023-01-26T09:21:24;99747.81;;;0.20;0.00
23318;BME280;11831;55.918;37.746;2023-01-26T09:23:51;99746.00;;;0.20;0.00
23318;BME280;11831;55.918;37.746;2023-01-26T09:26:17;99737.78;;;-0.03;0.00
23318;BME280;11831;55.918;37.746;2023-01-26T09:28:44;99764.66;;;0.09;0.00
23318;BME280;11831;55.918;37.746;2023-01-26T09:31:10;99764.47;;;0.28;0.00
23318;BME280;11831;55.918;37.746;2023-01-26T09:33:37;99752.84;;;0.13;0.00
23318;BME280;11831;55.918;37.746;2023-01-26T09:36:09;99768.28;;;0.08;0.00
23318;BME280;11831;55.918;37.746;2023-01-26T09:38:36;99746.88;;;-0.33;0.00
23318;BME280;11831;55.918;37.746;2023-01-26T09:43:59;99747.41;;;0.07;0.00
23318;BME280;11831;55.918;37.746;2023-01-26T09:49:28;99762.50;;;-0.13;0.00
23318;BME280;11831;55.918;37.746;2023-01-26T09:52:07;99745.53;;;0.51;0.00
23318;BME280;11831;55.918;37.746;2023-01-26T09:54:42;99751.16;;;0.04;0.00
23318;BME280;11831;55.918;37.746;2023-01-26T09:57:15;99743.69;;;0.17;0.00
23318;BME280;11831;55.918;37.746;2023-01-26T09:59:52;99743.06;;;-0.20;0.00
23318;BME280;11831;55.918;37.746;2023-01-26T10:02:39;99736.22;;;-0.13;0.00
23318;BME280;11831;55.918;37.746;2023-01-26T10:05:14;99739.97;;;-0.16;0.00
23318;BME280;11831;55.918;37.746;2023-01-26T10:07:57;99730.34;;;-0.07;0.00
23318;BME280;11831;55.918;37.746;2023-01-26T10:10:31;99739.81;;;-0.14;0.00
23318;BME280;11831;55.918;37.746;2023-01-26T10:13:00;99729.53;;;-0.08;0.00
23318;BME280;11831;55.918;37.746;2023-01-26T10:15:30;99739.22;;;-0.08;0.00
23318;BME280;11831;55.918;37.746;2023-01-26T10:18:00;99725.75;;;0.39;0.00
23318;BME280;11831;55.918;37.746;2023-01-26T10:20:34;99720.28;;;0.06;0.00
23318;BME280;11831;55.918;37.746;2023-01-26T10:23:16;99714.09;;;0.15;0.00
23318;BME280;11831;55.918;37.746;2023-01-26T10:25:44;99719.59;;;0.30;0.00
23318;BME280;11831;55.918;37.746;2023-01-26T10:28:16;99715.31;;;0.29;0.00
23318;BME280;11831;55.918;37.746;2023-01-26T10:30:45;99718.84;;;0.38;0.00
23318;BME280;11831;55.918;37.746;2023-01-26T10:33:18;99726.72;;;0.12;0.00
23318;BME280;11831;55.918;37.746;2023-01-26T10:35:45;99719.47;;;-0.12;0.00
23318;BME280;11831;55.918;37.746;2023-01-26T10:41:06;99717.59;;;-0.20;0.00
23318;BME280;11831;55.918;37.746;2023-01-26T10:43:39;99707.88;;;-0.27;0.00
23318;BME280;11831;55.918;37.746;2023-01-26T10:48:57;99701.94;;;-0.04;0.00
23318;BME280;11831;55.918;37.746;2023-01-26T10:51:29;99697.22;;;0.00;0.00
23318;BME280;11831;55.918;37.746;2023-01-26T10:54:18;99694.91;;;0.23;0.00
23318;BME280;11831;55.918;37.746;2023-01-26T11:00:03;99689.22;;;-0.16;0.00
23318;BME280;11831;55.918;37.746;2023-01-26T11:02:34;99677.88;;;-0.17;0.00
23318;BME280;11831;55.918;37.746;2023-01-26T11:07:38;99676.91;;;-0.16;0.00
23318;BME280;11831;55.918;37.746;2023-01-26T11:10:50;99679.53;;;-0.16;0.00
23318;BME280;11831;55.918;37.746;2023-01-26T11:13:20;99670.66;;;-0.15;0.00
23318;BME280;11831;55.918;37.746;2023-01-26T11:15:49;99673.56;;;0.00;0.00
23318;BME280;11831;55.918;37.746;2023-01-26T11:21:29;99664.88;;;-0.18;0.00
23318;BME280;11831;55.918;37.746;2023-01-26T11:24:39;99676.31;;;-0.02;0.00
23318;BME280;11831;55.918;37.746;2023-01-26T11:28:06;99654.03;;;0.03;0.00
23318;BME280;11831;55.918;37.746;2023-01-26T11:30:41;99660.44;;;0.00;0.00
23318;BME280;11831;55.918;37.746;2023-01-26T11:36:02;99647.69;;;-0.13;0.00
23318;BME280;11831;55.918;37.746;2023-01-26T11:41:48;99652.47;;;-0.08;0.00
23318;BME280;11831;55.918;37.746;2023-01-26T11:59:54;99644.84;;;0.41;0.00
23318;BME280;11831;55.918;37.746;2023-01-26T12:02:42;99638.59;;;0.34;0.00
23318;BME280;11831;55.918;37.746;2023-01-26T12:05:25;99647.31;;;0.34;0.00
23318;BME280;11831;55.918;37.746;2023-01-26T12:07:53;99656.47;;;0.30;0.00
23318;BME280;11831;55.918;37.746;2023-01-26T12:10:47;99661.50;;;0.15;0.00
23318;BME280;11831;55.918;37.746;2023-01-26T12:15:54;99656.38;;;-0.12;0.00
23318;BME280;11831;55.918;37.746;2023-01-26T12:21:21;99654.06;;;0.37;0.00
23318;BME280;11831;55.918;37.746;2023-01-26T12:23:58;99668.69;;;-0.13;0.00
23318;BME280;11831;55.918;37.746;2023-01-26T12:26:27;99656.66;;;0.03;0.00
23318;BME280;11831;55.918;37.746;2023-01-26T12:29:24;99649.13;;;0.42;0.00
23318;BME280;11831;55.918;37.746;2023-01-26T12:31:57;99656.84;;;0.35;0.00
23318;BME280;11831;55.918;37.746;2023-01-26T12:34:31;99649.69;;;0.19;0.00
23318;BME280;11831;55.918;37.746;2023-01-26T12:40:15;99640.84;;;0.28;0.00
23318;BME280;11831;55.918;37.746;2023-01-26T12:42:54;99653.25;;;0.10;0.00
23318;BME280;11831;55.918;37.746;2023-01-26T12:45:32;99650.37;;;0.29;0.00
23318;BME280;11831;55.918;37.746;2023-01-26T12:53:21;99665.25;;;0.13;0.00
23318;BME280;11831;55.918;37.746;2023-01-26T12:56:19;99695.41;;;-0.25;0.00
23318;BME280;11831;55.918;37.746;2023-01-26T12:58:47;99663.09;;;-0.18;0.00
23318;BME280;11831;55.918;37.746;2023-01-26T13:01:20;99659.13;;;0.04;0.00
23318;BME280;11831;55.918;37.746;2023-01-26T13:03:54;99646.69;;;0.14;0.00
23318;BME280;11831;55.918;37.746;2023-01-26T13:06:23;99651.78;;;-0.10;0.00
23318;BME280;11831;55.918;37.746;2023-01-26T13:08:52;99650.19;;;-0.03;0.00
23318;BME280;11831;55.918;37.746;2023-01-26T13:11:46;99666.44;;;-0.08;0.00
23318;BME280;11831;55.918;37.746;2023-01-26T13:24:58;99654.78;;;0.21;0.00
23318;BME280;11831;55.918;37.746;2023-01-26T13:27:44;99657.06;;;0.16;0.00
23318;BME280;11831;55.918;37.746;2023-01-26T13:30:41;99653.56;;;0.07;0.00
23318;BME280;11831;55.918;37.746;2023-01-26T13:33:21;99655.28;;;0.24;0.00
23318;BME280;11831;55.918;37.746;2023-01-26T13:35:50;99659.97;;;0.05;0.00
23318;BME280;11831;55.918;37.746;2023-01-26T13:38:28;99664.22;;;0.06;0.00
23318;BME280;11831;55.918;37.746;2023-01-26T13:40:56;99680.09;;;-0.30;0.00
23318;BME280;11831;55.918;37.746;2023-01-26T13:43:35;99672.34;;;0.20;0.00
23318;BME280;11831;55.918;37.746;2023-01-26T13:46:05;99669.38;;;0.15;0.00
23318;BME280;11831;55.918;37.746;2023-01-26T13:51:01;99657.91;;;0.58;0.00
23318;BME280;11831;55.918;37.746;2023-01-26T13:53:33;99666.22;;;0.38;0.00
23318;BME280;11831;55.918;37.746;2023-01-26T13:56:03;99669.50;;;0.06;0.00
23318;BME280;11831;55.918;37.746;2023-01-26T13:58:31;99656.47;;;0.64;0.00
23318;BME280;11831;55.918;37.746;2023-01-26T14:03:25;99660.91;;;0.29;0.00
23318;BME280;11831;55.918;37.746;2023-01-26T14:06:04;99663.41;;;0.31;0.00
23318;BME280;11831;55.918;37.746;2023-01-26T14:08:35;99661.34;;;0.17;0.00
23318;BME280;11831;55.918;37.746;2023-01-26T14:11:04;99660.47;;;0.08;0.00
23318;BME280;11831;55.918;37.746;2023-01-26T14:13:37;99656.44;;;0.22;0.00
23318;BME280;11831;55.918;37.746;2023-01-26T14:16:06;99653.44;;;0.51;0.00
23318;BME280;11831;55.918;37.746;2023-01-26T14:18:32;99655.44;;;0.23;0.00
23318;BME280;11831;55.918;37.746;2023-01-26T14:21:02;99661.50;;;0.15;0.00
23318;BME280;11831;55.918;37.746;2023-01-26T14:23:35;99649.25;;;0.32;0.00
23318;BME280;11831;55.918;37.746;2023-01-26T14:26:20;99661.75;;;0.04;0.00
23318;BME280;11831;55.918;37.746;2023-01-26T14:28:46;99664.84;;;-0.26;0.00
23318;BME280;11831;55.918;37.746;2023-01-26T14:31:19;99658.69;;;0.17;0.00
23318;BME280;11831;55.918;37.746;2023-01-26T14:33:48;99642.59;;;0.20;0.00
23318;BME280;11831;55.918;37.746;2023-01-26T14:36:19;99656.22;;;0.15;0.00
23318;BME280;11831;55.918;37.746;2023-01-26T14:38:50;99643.75;;;0.17;0.00
23318;BME280;11831;55.918;37.746;2023-01-26T14:41:26;99654.47;;;-0.02;0.00